sensor_id;sensor_type;location;lat;lon;timestamp;P1;durP1;ratioP1;P2;durP2;ratioP2
1436;SDS011;712;51.026;13.792;2023-08-06T00:00:37;8.97;;;5.23;;
1436;SDS011;712;51.026;13.792;2023-08-06T00:03:02;6.57;;;4.45;;
1436;SDS011;712;51.026;13.792;2023-08-06T00:05:28;8.77;;;5.07;;
1436;SDS011;712;51.026;13.792;2023-08-06T00:07:53;9.05;;;5.43;;
1436;SDS011;712;51.026;13.792;2023-08-06T00:10:18;6.93;;;4.40;;
1436;SDS011;712;51.026;13.792;2023-08-06T00:12:43;9.07;;;5.43;;
1436;SDS011;712;51.026;13.792;2023-08-06T00:15:09;8.43;;;5.50;;
1436;SDS011;712;51.026;13.792;2023-08-06T00:17:34;9.55;;;6.15;;
1436;SDS011;712;51.026;13.792;2023-08-06T00:19:59;8.50;;;6.10;;
1436;SDS011;712;51.026;13.792;2023-08-06T00:22:29;8.60;;;6.00;;
1436;SDS011;712;51.026;13.792;2023-08-06T00:24:54;7.97;;;5.33;;
1436;SDS011;712;51.026;13.792;2023-08-06T00:27:22;11.85;;;7.15;;
1436;SDS011;712;51.026;13.792;2023-08-06T00:29:47;11.93;;;6.63;;
1436;SDS011;712;51.026;13.792;2023-08-06T00:32:12;8.50;;;5.57;;
1436;SDS011;712;51.026;13.792;2023-08-06T00:34:37;8.23;;;5.73;;
1436;SDS011;712;51.026;13.792;2023-08-06T00:37:03;8.17;;;5.10;;
1436;SDS011;712;51.026;13.792;2023-08-06T00:39:28;8.23;;;5.25;;
1436;SDS011;712;51.026;13.792;2023-08-06T00:41:53;10.02;;;5.63;;
1436;SDS011;712;51.026;13.792;2023-08-06T00:44:19;8.68;;;5.97;;
1436;SDS011;712;51.026;13.792;2023-08-06T00:46:44;8.53;;;5.73;;
1436;SDS011;712;51.026;13.792;2023-08-06T00:49:09;7.23;;;4.93;;
1436;SDS011;712;51.026;13.792;2023-08-06T00:51:35;7.87;;;5.37;;
1436;SDS011;712;51.026;13.792;2023-08-06T00:54:00;11.33;;;6.93;;
1436;SDS011;712;51.026;13.792;2023-08-06T00:56:26;11.25;;;6.25;;
1436;SDS011;712;51.026;13.792;2023-08-06T00:58:51;10.47;;;6.20;;
1436;SDS011;712;51.026;13.792;2023-08-06T01:01:17;8.68;;;5.85;;
1436;SDS011;712;51.026;13.792;2023-08-06T01:03:42;8.93;;;5.83;;
1436;SDS011;712;51.026;13.792;2023-08-06T01:06:07;14.23;;;6.67;;
1436;SDS011;712;51.026;13.792;2023-08-06T01:08:54;10.98;;;6.85;;
1436;SDS011;712;51.026;13.792;2023-08-06T01:13:50;9.02;;;5.30;;
1436;SDS011;712;51.026;13.792;2023-08-06T01:16:17;9.25;;;5.55;;
1436;SDS011;712;51.026;13.792;2023-08-06T01:18:42;8.88;;;5.60;;
1436;SDS011;712;51.026;13.792;2023-08-06T01:21:11;8.55;;;5.38;;
1436;SDS011;712;51.026;13.792;2023-08-06T01:23:36;8.57;;;5.13;;
1436;SDS011;712;51.026;13.792;2023-08-06T01:28:33;8.57;;;5.55;;
1436;SDS011;712;51.026;13.792;2023-08-06T01:31:05;7.88;;;4.78;;
1436;SDS011;712;51.026;13.792;2023-08-06T01:33:32;7.97;;;5.00;;
1436;SDS011;712;51.026;13.792;2023-08-06T01:35:59;9.98;;;4.72;;
1436;SDS011;712;51.026;13.792;2023-08-06T01:38:24;7.78;;;5.25;;
1436;SDS011;712;51.026;13.792;2023-08-06T01:40:49;8.60;;;5.30;;
1436;SDS011;712;51.026;13.792;2023-08-06T01:43:15;7.17;;;5.13;;
1436;SDS011;712;51.026;13.792;2023-08-06T01:45:40;9.00;;;5.38;;
1436;SDS011;712;51.026;13.792;2023-08-06T01:48:05;9.00;;;5.03;;
1436;SDS011;712;51.026;13.792;2023-08-06T01:50:30;9.50;;;6.03;;
1436;SDS011;712;51.026;13.792;2023-08-06T01:52:55;13.80;;;7.10;;
1436;SDS011;712;51.026;13.792;2023-08-06T01:55:20;9.73;;;5.73;;
1436;SDS011;712;51.026;13.792;2023-08-06T01:57:46;13.40;;;5.87;;
1436;SDS011;712;51.026;13.792;2023-08-06T02:00:11;10.30;;;5.70;;
1436;SDS011;712;51.026;13.792;2023-08-06T02:02:36;9.93;;;6.88;;
1436;SDS011;712;51.026;13.792;2023-08-06T02:05:01;9.07;;;6.07;;
1436;SDS011;712;51.026;13.792;2023-08-06T02:07:27;10.03;;;6.40;;
1436;SDS011;712;51.026;13.792;2023-08-06T02:09:52;9.00;;;6.57;;
1436;SDS011;712;51.026;13.792;2023-08-06T02:12:17;10.03;;;6.50;;
1436;SDS011;712;51.026;13.792;2023-08-06T02:14:42;9.20;;;5.90;;
1436;SDS011;712;51.026;13.792;2023-08-06T02:17:07;8.98;;;6.22;;
1436;SDS011;712;51.026;13.792;2023-08-06T02:19:32;11.80;;;6.80;;
1436;SDS011;712;51.026;13.792;2023-08-06T02:21:58;9.90;;;6.28;;
1436;SDS011;712;51.026;13.792;2023-08-06T02:24:23;11.80;;;6.57;;
1436;SDS011;712;51.026;13.792;2023-08-06T02:26:48;10.60;;;6.43;;
1436;SDS011;712;51.026;13.792;2023-08-06T02:29:15;13.90;;;7.53;;
1436;SDS011;712;51.026;13.792;2023-08-06T02:31:41;11.80;;;7.47;;
1436;SDS011;712;51.026;13.792;2023-08-06T02:34:06;11.63;;;7.80;;
1436;SDS011;712;51.026;13.792;2023-08-06T02:36:31;10.50;;;7.38;;
1436;SDS011;712;51.026;13.792;2023-08-06T02:38:56;8.83;;;5.73;;
1436;SDS011;712;51.026;13.792;2023-08-06T02:41:22;10.77;;;7.10;;
1436;SDS011;712;51.026;13.792;2023-08-06T02:43:47;9.37;;;6.47;;
1436;SDS011;712;51.026;13.792;2023-08-06T02:46:12;8.43;;;6.00;;
1436;SDS011;712;51.026;13.792;2023-08-06T02:48:37;11.17;;;7.07;;
1436;SDS011;712;51.026;13.792;2023-08-06T02:51:02;10.90;;;7.00;;
1436;SDS011;712;51.026;13.792;2023-08-06T02:53:27;11.67;;;6.90;;
1436;SDS011;712;51.026;13.792;2023-08-06T02:55:53;12.50;;;8.00;;
1436;SDS011;712;51.026;13.792;2023-08-06T02:58:18;11.77;;;7.20;;
1436;SDS011;712;51.026;13.792;2023-08-06T03:00:58;10.88;;;7.68;;
1436;SDS011;712;51.026;13.792;2023-08-06T03:03:24;10.65;;;7.25;;
1436;SDS011;712;51.026;13.792;2023-08-06T03:05:52;11.02;;;6.45;;
1436;SDS011;712;51.026;13.792;2023-08-06T03:08:18;9.68;;;6.05;;
1436;SDS011;712;51.026;13.792;2023-08-06T03:10:47;8.93;;;5.80;;
1436;SDS011;712;51.026;13.792;2023-08-06T03:13:12;7.65;;;4.88;;
1436;SDS011;712;51.026;13.792;2023-08-06T03:15:37;7.80;;;5.47;;
1436;SDS011;712;51.026;13.792;2023-08-06T03:18:02;9.93;;;5.68;;
1436;SDS011;712;51.026;13.792;2023-08-06T03:20:27;8.93;;;5.80;;
1436;SDS011;712;51.026;13.792;2023-08-06T03:22:52;9.60;;;5.70;;
1436;SDS011;712;51.026;13.792;2023-08-06T03:25:18;8.40;;;5.77;;
1436;SDS011;712;51.026;13.792;2023-08-06T03:27:43;12.70;;;7.60;;
1436;SDS011;712;51.026;13.792;2023-08-06T03:30:08;8.93;;;5.90;;
1436;SDS011;712;51.026;13.792;2023-08-06T03:32:34;8.95;;;5.68;;
1436;SDS011;712;51.026;13.792;2023-08-06T03:34:59;10.48;;;7.22;;
1436;SDS011;712;51.026;13.792;2023-08-06T03:37:24;9.05;;;5.72;;
1436;SDS011;712;51.026;13.792;2023-08-06T03:39:49;9.87;;;6.43;;
1436;SDS011;712;51.026;13.792;2023-08-06T03:42:14;10.90;;;6.23;;
1436;SDS011;712;51.026;13.792;2023-08-06T03:44:39;9.03;;;5.90;;
1436;SDS011;712;51.026;13.792;2023-08-06T03:47:04;9.43;;;5.63;;
1436;SDS011;712;51.026;13.792;2023-08-06T03:49:30;11.53;;;6.70;;
1436;SDS011;712;51.026;13.792;2023-08-06T03:51:55;8.03;;;5.53;;
1436;SDS011;712;51.026;13.792;2023-08-06T03:54:20;8.00;;;5.10;;
1436;SDS011;712;51.026;13.792;2023-08-06T03:56:45;8.10;;;5.30;;
1436;SDS011;712;51.026;13.792;2023-08-06T03:59:10;9.38;;;5.30;;
1436;SDS011;712;51.026;13.792;2023-08-06T04:01:35;10.47;;;6.50;;
1436;SDS011;712;51.026;13.792;2023-08-06T04:04:01;7.35;;;4.93;;
1436;SDS011;712;51.026;13.792;2023-08-06T04:06:26;9.32;;;5.97;;
1436;SDS011;712;51.026;13.792;2023-08-06T04:08:51;8.23;;;4.50;;
1436;SDS011;712;51.026;13.792;2023-08-06T04:11:16;7.90;;;5.47;;
1436;SDS011;712;51.026;13.792;2023-08-06T04:13:42;8.63;;;5.50;;
1436;SDS011;712;51.026;13.792;2023-08-06T04:16:07;7.30;;;5.07;;
1436;SDS011;712;51.026;13.792;2023-08-06T04:18:32;6.22;;;4.25;;
1436;SDS011;712;51.026;13.792;2023-08-06T04:20:57;7.20;;;4.60;;
1436;SDS011;712;51.026;13.792;2023-08-06T04:23:23;9.10;;;5.07;;
1436;SDS011;712;51.026;13.792;2023-08-06T04:25:49;8.25;;;5.50;;
1436;SDS011;712;51.026;13.792;2023-08-06T04:28:14;7.80;;;5.30;;
1436;SDS011;712;51.026;13.792;2023-08-06T04:30:39;7.47;;;4.80;;
1436;SDS011;712;51.026;13.792;2023-08-06T04:33:04;9.00;;;5.47;;
1436;SDS011;712;51.026;13.792;2023-08-06T04:35:29;7.13;;;4.50;;
1436;SDS011;712;51.026;13.792;2023-08-06T04:37:54;6.83;;;4.57;;
1436;SDS011;712;51.026;13.792;2023-08-06T04:40:19;7.68;;;5.22;;
1436;SDS011;712;51.026;13.792;2023-08-06T04:42:45;8.17;;;5.03;;
1436;SDS011;712;51.026;13.792;2023-08-06T04:45:10;7.25;;;4.85;;
1436;SDS011;712;51.026;13.792;2023-08-06T04:47:35;8.40;;;5.37;;
1436;SDS011;712;51.026;13.792;2023-08-06T04:50:00;7.28;;;4.50;;
1436;SDS011;712;51.026;13.792;2023-08-06T04:52:26;7.88;;;4.78;;
1436;SDS011;712;51.026;13.792;2023-08-06T04:54:53;6.72;;;4.30;;
1436;SDS011;712;51.026;13.792;2023-08-06T04:57:18;8.30;;;4.47;;
1436;SDS011;712;51.026;13.792;2023-08-06T04:59:43;6.95;;;4.63;;
1436;SDS011;712;51.026;13.792;2023-08-06T05:02:08;6.43;;;4.00;;
1436;SDS011;712;51.026;13.792;2023-08-06T05:04:34;6.27;;;4.17;;
1436;SDS011;712;51.026;13.792;2023-08-06T05:06:59;6.82;;;4.07;;
1436;SDS011;712;51.026;13.792;2023-08-06T05:09:25;7.40;;;4.82;;
1436;SDS011;712;51.026;13.792;2023-08-06T05:11:50;6.47;;;3.73;;
1436;SDS011;712;51.026;13.792;2023-08-06T05:14:15;7.23;;;3.97;;
1436;SDS011;712;51.026;13.792;2023-08-06T05:16:40;7.38;;;3.53;;
1436;SDS011;712;51.026;13.792;2023-08-06T05:19:06;7.28;;;4.13;;
1436;SDS011;712;51.026;13.792;2023-08-06T05:21:31;9.63;;;5.03;;
1436;SDS011;712;51.026;13.792;2023-08-06T05:23:56;6.97;;;4.50;;
1436;SDS011;712;51.026;13.792;2023-08-06T05:26:21;9.13;;;5.20;;
1436;SDS011;712;51.026;13.792;2023-08-06T05:28:46;7.03;;;4.93;;
1436;SDS011;712;51.026;13.792;2023-08-06T05:31:12;6.50;;;4.10;;
1436;SDS011;712;51.026;13.792;2023-08-06T05:33:37;6.78;;;4.43;;
1436;SDS011;712;51.026;13.792;2023-08-06T05:36:02;7.70;;;4.53;;
1436;SDS011;712;51.026;13.792;2023-08-06T05:38:27;7.88;;;5.00;;
1436;SDS011;712;51.026;13.792;2023-08-06T05:40:53;8.20;;;5.10;;
1436;SDS011;712;51.026;13.792;2023-08-06T05:43:18;8.77;;;5.13;;
1436;SDS011;712;51.026;13.792;2023-08-06T05:45:46;8.30;;;5.38;;
1436;SDS011;712;51.026;13.792;2023-08-06T05:48:11;7.22;;;4.93;;
1436;SDS011;712;51.026;13.792;2023-08-06T05:50:36;7.40;;;4.82;;
1436;SDS011;712;51.026;13.792;2023-08-06T05:53:02;7.35;;;4.68;;
1436;SDS011;712;51.026;13.792;2023-08-06T05:55:27;6.95;;;4.38;;
1436;SDS011;712;51.026;13.792;2023-08-06T05:57:52;7.17;;;5.03;;
1436;SDS011;712;51.026;13.792;2023-08-06T06:00:17;6.75;;;3.72;;
1436;SDS011;712;51.026;13.792;2023-08-06T06:02:43;6.50;;;4.30;;
1436;SDS011;712;51.026;13.792;2023-08-06T06:05:08;7.00;;;4.77;;
1436;SDS011;712;51.026;13.792;2023-08-06T06:07:33;8.97;;;6.17;;
1436;SDS011;712;51.026;13.792;2023-08-06T06:09:59;7.67;;;5.23;;
1436;SDS011;712;51.026;13.792;2023-08-06T06:12:24;9.43;;;5.70;;
1436;SDS011;712;51.026;13.792;2023-08-06T06:14:50;7.80;;;4.75;;
1436;SDS011;712;51.026;13.792;2023-08-06T06:17:15;7.63;;;5.30;;
1436;SDS011;712;51.026;13.792;2023-08-06T06:19:41;8.93;;;5.45;;
1436;SDS011;712;51.026;13.792;2023-08-06T06:22:06;8.67;;;5.73;;
1436;SDS011;712;51.026;13.792;2023-08-06T06:24:31;9.38;;;6.22;;
1436;SDS011;712;51.026;13.792;2023-08-06T06:26:56;9.43;;;6.23;;
1436;SDS011;712;51.026;13.792;2023-08-06T06:29:21;8.82;;;5.88;;
1436;SDS011;712;51.026;13.792;2023-08-06T06:31:46;9.10;;;6.27;;
1436;SDS011;712;51.026;13.792;2023-08-06T06:34:12;10.45;;;7.05;;
1436;SDS011;712;51.026;13.792;2023-08-06T06:36:37;8.80;;;6.10;;
1436;SDS011;712;51.026;13.792;2023-08-06T06:39:02;9.48;;;6.53;;
1436;SDS011;712;51.026;13.792;2023-08-06T06:41:27;10.87;;;6.73;;
1436;SDS011;712;51.026;13.792;2023-08-06T06:43:54;9.63;;;6.15;;
1436;SDS011;712;51.026;13.792;2023-08-06T06:46:19;7.82;;;5.00;;
1436;SDS011;712;51.026;13.792;2023-08-06T06:48:44;8.50;;;5.80;;
1436;SDS011;712;51.026;13.792;2023-08-06T06:51:10;8.02;;;5.60;;
1436;SDS011;712;51.026;13.792;2023-08-06T06:53:35;8.15;;;5.25;;
1436;SDS011;712;51.026;13.792;2023-08-06T06:56:04;8.07;;;5.53;;
1436;SDS011;712;51.026;13.792;2023-08-06T06:58:29;7.40;;;5.18;;
1436;SDS011;712;51.026;13.792;2023-08-06T07:00:54;7.80;;;4.75;;
1436;SDS011;712;51.026;13.792;2023-08-06T07:03:20;8.03;;;5.03;;
1436;SDS011;712;51.026;13.792;2023-08-06T07:05:45;9.00;;;5.27;;
1436;SDS011;712;51.026;13.792;2023-08-06T07:08:10;6.43;;;4.00;;
1436;SDS011;712;51.026;13.792;2023-08-06T07:10:36;7.22;;;4.70;;
1436;SDS011;712;51.026;13.792;2023-08-06T07:13:01;8.00;;;5.10;;
1436;SDS011;712;51.026;13.792;2023-08-06T07:15:26;9.03;;;5.60;;
1436;SDS011;712;51.026;13.792;2023-08-06T07:17:51;8.33;;;4.77;;
1436;SDS011;712;51.026;13.792;2023-08-06T07:20:16;8.57;;;5.80;;
1436;SDS011;712;51.026;13.792;2023-08-06T07:22:42;8.47;;;5.23;;
1436;SDS011;712;51.026;13.792;2023-08-06T07:25:07;9.10;;;4.07;;
1436;SDS011;712;51.026;13.792;2023-08-06T07:27:32;7.30;;;4.70;;
1436;SDS011;712;51.026;13.792;2023-08-06T07:29:57;9.52;;;5.35;;
1436;SDS011;712;51.026;13.792;2023-08-06T07:32:23;7.47;;;5.40;;
1436;SDS011;712;51.026;13.792;2023-08-06T07:34:48;8.83;;;5.33;;
1436;SDS011;712;51.026;13.792;2023-08-06T07:37:13;8.33;;;5.83;;
1436;SDS011;712;51.026;13.792;2023-08-06T07:39:39;8.30;;;5.25;;
1436;SDS011;712;51.026;13.792;2023-08-06T07:42:04;8.93;;;5.25;;
1436;SDS011;712;51.026;13.792;2023-08-06T07:46:55;9.98;;;6.78;;
1436;SDS011;712;51.026;13.792;2023-08-06T07:49:21;10.87;;;6.33;;
1436;SDS011;712;51.026;13.792;2023-08-06T07:51:46;8.27;;;6.13;;
1436;SDS011;712;51.026;13.792;2023-08-06T07:54:11;8.10;;;5.43;;
1436;SDS011;712;51.026;13.792;2023-08-06T07:56:37;8.17;;;5.47;;
1436;SDS011;712;51.026;13.792;2023-08-06T07:59:02;9.68;;;5.70;;
1436;SDS011;712;51.026;13.792;2023-08-06T08:01:27;8.40;;;4.90;;
1436;SDS011;712;51.026;13.792;2023-08-06T08:03:52;10.07;;;6.00;;
1436;SDS011;712;51.026;13.792;2023-08-06T08:06:17;13.20;;;5.60;;
1436;SDS011;712;51.026;13.792;2023-08-06T08:08:42;7.32;;;4.15;;
1436;SDS011;712;51.026;13.792;2023-08-06T08:11:08;8.45;;;4.45;;
1436;SDS011;712;51.026;13.792;2023-08-06T08:13:33;6.73;;;4.40;;
1436;SDS011;712;51.026;13.792;2023-08-06T08:15:59;6.90;;;4.38;;
1436;SDS011;712;51.026;13.792;2023-08-06T08:18:25;7.40;;;4.28;;
1436;SDS011;712;51.026;13.792;2023-08-06T08:20:50;6.70;;;4.18;;
1436;SDS011;712;51.026;13.792;2023-08-06T08:23:15;6.93;;;4.60;;
1436;SDS011;712;51.026;13.792;2023-08-06T08:25:40;7.20;;;4.67;;
1436;SDS011;712;51.026;13.792;2023-08-06T08:28:06;7.95;;;4.97;;
1436;SDS011;712;51.026;13.792;2023-08-06T08:30:32;5.57;;;3.50;;
1436;SDS011;712;51.026;13.792;2023-08-06T08:32:57;7.27;;;3.90;;
1436;SDS011;712;51.026;13.792;2023-08-06T08:35:22;4.67;;;2.70;;
1436;SDS011;712;51.026;13.792;2023-08-06T08:37:47;4.70;;;2.80;;
1436;SDS011;712;51.026;13.792;2023-08-06T08:40:14;5.00;;;3.17;;
1436;SDS011;712;51.026;13.792;2023-08-06T08:42:39;6.13;;;2.92;;
1436;SDS011;712;51.026;13.792;2023-08-06T08:45:04;4.47;;;2.45;;
1436;SDS011;712;51.026;13.792;2023-08-06T08:47:31;4.85;;;2.67;;
1436;SDS011;712;51.026;13.792;2023-08-06T08:49:56;6.45;;;2.30;;
1436;SDS011;712;51.026;13.792;2023-08-06T08:52:22;4.72;;;2.38;;
1436;SDS011;712;51.026;13.792;2023-08-06T08:54:48;4.70;;;2.00;;
1436;SDS011;712;51.026;13.792;2023-08-06T08:57:16;4.82;;;2.30;;
1436;SDS011;712;51.026;13.792;2023-08-06T08:59:42;3.88;;;1.88;;
1436;SDS011;712;51.026;13.792;2023-08-06T09:02:07;5.03;;;1.80;;
1436;SDS011;712;51.026;13.792;2023-08-06T09:04:34;4.40;;;2.35;;
1436;SDS011;712;51.026;13.792;2023-08-06T09:07:00;4.60;;;2.45;;
1436;SDS011;712;51.026;13.792;2023-08-06T09:09:26;4.27;;;2.27;;
1436;SDS011;712;51.026;13.792;2023-08-06T09:11:53;5.18;;;2.53;;
1436;SDS011;712;51.026;13.792;2023-08-06T09:14:20;4.25;;;2.28;;
1436;SDS011;712;51.026;13.792;2023-08-06T09:16:45;4.22;;;2.17;;
1436;SDS011;712;51.026;13.792;2023-08-06T09:19:12;4.38;;;2.30;;
1436;SDS011;712;51.026;13.792;2023-08-06T09:21:41;5.57;;;2.40;;
1436;SDS011;712;51.026;13.792;2023-08-06T09:24:10;4.75;;;2.50;;
1436;SDS011;712;51.026;13.792;2023-08-06T09:26:44;4.85;;;2.70;;
1436;SDS011;712;51.026;13.792;2023-08-06T09:29:09;4.93;;;2.40;;
1436;SDS011;712;51.026;13.792;2023-08-06T09:31:44;4.53;;;2.70;;
1436;SDS011;712;51.026;13.792;2023-08-06T09:34:11;5.70;;;2.40;;
1436;SDS011;712;51.026;13.792;2023-08-06T09:36:43;4.78;;;2.70;;
1436;SDS011;712;51.026;13.792;2023-08-06T09:39:20;5.07;;;2.30;;
1436;SDS011;712;51.026;13.792;2023-08-06T09:41:46;4.82;;;2.50;;
1436;SDS011;712;51.026;13.792;2023-08-06T09:44:17;5.00;;;2.75;;
1436;SDS011;712;51.026;13.792;2023-08-06T09:46:46;5.75;;;2.80;;
1436;SDS011;712;51.026;13.792;2023-08-06T09:49:12;5.30;;;3.10;;
1436;SDS011;712;51.026;13.792;2023-08-06T09:51:37;5.13;;;2.70;;
1436;SDS011;712;51.026;13.792;2023-08-06T09:54:04;5.32;;;2.75;;
1436;SDS011;712;51.026;13.792;2023-08-06T09:56:30;5.88;;;3.50;;
1436;SDS011;712;51.026;13.792;2023-08-06T09:59:02;4.68;;;2.67;;
1436;SDS011;712;51.026;13.792;2023-08-06T10:01:27;5.97;;;2.90;;
1436;SDS011;712;51.026;13.792;2023-08-06T10:03:52;5.47;;;3.07;;
1436;SDS011;712;51.026;13.792;2023-08-06T10:06:18;6.28;;;3.38;;
1436;SDS011;712;51.026;13.792;2023-08-06T10:08:45;5.47;;;3.25;;
1436;SDS011;712;51.026;13.792;2023-08-06T10:11:10;6.90;;;3.65;;
1436;SDS011;712;51.026;13.792;2023-08-06T10:13:36;5.50;;;3.38;;
1436;SDS011;712;51.026;13.792;2023-08-06T10:16:01;4.90;;;3.08;;
1436;SDS011;712;51.026;13.792;2023-08-06T10:18:27;6.55;;;3.50;;
1436;SDS011;712;51.026;13.792;2023-08-06T10:20:53;5.65;;;3.65;;
1436;SDS011;712;51.026;13.792;2023-08-06T10:23:19;6.28;;;3.20;;
1436;SDS011;712;51.026;13.792;2023-08-06T10:25:46;5.50;;;3.70;;
1436;SDS011;712;51.026;13.792;2023-08-06T10:28:18;5.68;;;3.05;;
1436;SDS011;712;51.026;13.792;2023-08-06T10:30:47;5.28;;;3.22;;
1436;SDS011;712;51.026;13.792;2023-08-06T10:33:12;5.85;;;3.30;;
1436;SDS011;712;51.026;13.792;2023-08-06T10:38:03;5.90;;;2.63;;
1436;SDS011;712;51.026;13.792;2023-08-06T10:40:29;5.18;;;2.67;;
1436;SDS011;712;51.026;13.792;2023-08-06T10:42:56;4.78;;;2.65;;
1436;SDS011;712;51.026;13.792;2023-08-06T10:45:23;4.60;;;2.72;;
1436;SDS011;712;51.026;13.792;2023-08-06T10:47:53;7.07;;;3.13;;
1436;SDS011;712;51.026;13.792;2023-08-06T10:50:18;6.40;;;2.67;;
1436;SDS011;712;51.026;13.792;2023-08-06T10:52:44;5.53;;;2.67;;
1436;SDS011;712;51.026;13.792;2023-08-06T10:55:09;5.00;;;2.80;;
1436;SDS011;712;51.026;13.792;2023-08-06T10:57:34;4.90;;;2.80;;
1436;SDS011;712;51.026;13.792;2023-08-06T11:00:00;4.90;;;2.73;;
1436;SDS011;712;51.026;13.792;2023-08-06T11:02:25;7.20;;;2.80;;
1436;SDS011;712;51.026;13.792;2023-08-06T11:04:50;4.97;;;2.97;;
1436;SDS011;712;51.026;13.792;2023-08-06T11:07:15;5.23;;;2.80;;
1436;SDS011;712;51.026;13.792;2023-08-06T11:09:40;5.70;;;2.70;;
1436;SDS011;712;51.026;13.792;2023-08-06T11:12:09;6.13;;;2.50;;
1436;SDS011;712;51.026;13.792;2023-08-06T11:14:34;5.03;;;2.97;;
1436;SDS011;712;51.026;13.792;2023-08-06T11:19:26;5.00;;;2.35;;
1436;SDS011;712;51.026;13.792;2023-08-06T11:21:51;6.00;;;2.70;;
1436;SDS011;712;51.026;13.792;2023-08-06T11:24:16;5.03;;;2.27;;
1436;SDS011;712;51.026;13.792;2023-08-06T11:26:42;5.55;;;2.78;;
1436;SDS011;712;51.026;13.792;2023-08-06T11:29:09;5.53;;;2.40;;
1436;SDS011;712;51.026;13.792;2023-08-06T11:31:35;3.97;;;2.23;;
1436;SDS011;712;51.026;13.792;2023-08-06T11:34:00;4.25;;;2.50;;
1436;SDS011;712;51.026;13.792;2023-08-06T11:36:32;5.13;;;2.23;;
1436;SDS011;712;51.026;13.792;2023-08-06T11:39:00;4.00;;;2.25;;
1436;SDS011;712;51.026;13.792;2023-08-06T11:41:27;4.80;;;2.50;;
1436;SDS011;712;51.026;13.792;2023-08-06T11:43:52;4.60;;;2.60;;
1436;SDS011;712;51.026;13.792;2023-08-06T11:46:18;5.27;;;2.07;;
1436;SDS011;712;51.026;13.792;2023-08-06T11:48:52;4.33;;;2.27;;
1436;SDS011;712;51.026;13.792;2023-08-06T11:51:17;5.20;;;2.47;;
1436;SDS011;712;51.026;13.792;2023-08-06T11:53:46;6.17;;;2.67;;
1436;SDS011;712;51.026;13.792;2023-08-06T11:56:11;5.03;;;2.50;;
1436;SDS011;712;51.026;13.792;2023-08-06T11:58:36;4.90;;;2.63;;
1436;SDS011;712;51.026;13.792;2023-08-06T12:01:01;4.20;;;2.30;;
1436;SDS011;712;51.026;13.792;2023-08-06T12:03:27;3.67;;;2.20;;
1436;SDS011;712;51.026;13.792;2023-08-06T12:05:55;4.78;;;2.50;;
1436;SDS011;712;51.026;13.792;2023-08-06T12:08:20;4.73;;;2.70;;
1436;SDS011;712;51.026;13.792;2023-08-06T12:10:45;4.97;;;2.70;;
1436;SDS011;712;51.026;13.792;2023-08-06T12:15:37;5.63;;;2.50;;
1436;SDS011;712;51.026;13.792;2023-08-06T12:18:03;4.40;;;2.00;;
1436;SDS011;712;51.026;13.792;2023-08-06T12:20:28;4.57;;;2.45;;
1436;SDS011;712;51.026;13.792;2023-08-06T12:22:53;4.60;;;2.58;;
1436;SDS011;712;51.026;13.792;2023-08-06T12:25:19;4.03;;;2.23;;
1436;SDS011;712;51.026;13.792;2023-08-06T12:27:44;5.65;;;2.00;;
1436;SDS011;712;51.026;13.792;2023-08-06T12:30:10;6.47;;;2.45;;
1436;SDS011;712;51.026;13.792;2023-08-06T12:32:35;5.47;;;2.58;;
1436;SDS011;712;51.026;13.792;2023-08-06T12:35:01;5.68;;;2.70;;
1436;SDS011;712;51.026;13.792;2023-08-06T12:37:26;4.93;;;2.30;;
1436;SDS011;712;51.026;13.792;2023-08-06T12:39:52;4.18;;;2.53;;
1436;SDS011;712;51.026;13.792;2023-08-06T12:42:17;3.85;;;2.20;;
1436;SDS011;712;51.026;13.792;2023-08-06T12:44:42;5.23;;;2.33;;
1436;SDS011;712;51.026;13.792;2023-08-06T12:47:08;5.05;;;2.30;;
1436;SDS011;712;51.026;13.792;2023-08-06T12:49:33;4.67;;;2.60;;
1436;SDS011;712;51.026;13.792;2023-08-06T12:51:58;4.50;;;2.47;;
1436;SDS011;712;51.026;13.792;2023-08-06T12:54:24;5.53;;;2.60;;
1436;SDS011;712;51.026;13.792;2023-08-06T12:56:50;4.83;;;2.67;;
1436;SDS011;712;51.026;13.792;2023-08-06T12:59:15;5.85;;;2.50;;
1436;SDS011;712;51.026;13.792;2023-08-06T13:01:41;4.88;;;2.72;;
1436;SDS011;712;51.026;13.792;2023-08-06T13:04:06;4.63;;;2.80;;
1436;SDS011;712;51.026;13.792;2023-08-06T13:06:32;7.07;;;2.77;;
1436;SDS011;712;51.026;13.792;2023-08-06T13:09:05;4.93;;;2.70;;
1436;SDS011;712;51.026;13.792;2023-08-06T13:11:31;5.00;;;2.40;;
1436;SDS011;712;51.026;13.792;2023-08-06T13:14:03;5.10;;;2.95;;
1436;SDS011;712;51.026;13.792;2023-08-06T13:16:29;5.13;;;2.60;;
1436;SDS011;712;51.026;13.792;2023-08-06T13:18:54;4.90;;;2.60;;
1436;SDS011;712;51.026;13.792;2023-08-06T13:21:19;5.47;;;2.83;;
1436;SDS011;712;51.026;13.792;2023-08-06T13:23:44;4.75;;;2.35;;
1436;SDS011;712;51.026;13.792;2023-08-06T13:26:09;5.27;;;2.67;;
1436;SDS011;712;51.026;13.792;2023-08-06T13:28:34;4.93;;;2.50;;
1436;SDS011;712;51.026;13.792;2023-08-06T13:31:00;5.20;;;1.90;;
1436;SDS011;712;51.026;13.792;2023-08-06T13:33:26;5.25;;;2.28;;
1436;SDS011;712;51.026;13.792;2023-08-06T13:35:51;5.43;;;1.80;;
1436;SDS011;712;51.026;13.792;2023-08-06T13:38:16;5.20;;;2.20;;
1436;SDS011;712;51.026;13.792;2023-08-06T13:40:42;4.95;;;1.98;;
1436;SDS011;712;51.026;13.792;2023-08-06T13:43:09;4.40;;;2.08;;
1436;SDS011;712;51.026;13.792;2023-08-06T13:45:34;4.50;;;1.47;;
1436;SDS011;712;51.026;13.792;2023-08-06T13:48:00;4.70;;;2.05;;
1436;SDS011;712;51.026;13.792;2023-08-06T13:50:25;3.73;;;1.63;;
1436;SDS011;712;51.026;13.792;2023-08-06T13:52:51;4.70;;;1.80;;
1436;SDS011;712;51.026;13.792;2023-08-06T13:55:18;4.53;;;1.83;;
1436;SDS011;712;51.026;13.792;2023-08-06T13:57:43;3.57;;;1.80;;
1436;SDS011;712;51.026;13.792;2023-08-06T14:00:08;5.00;;;1.93;;
1436;SDS011;712;51.026;13.792;2023-08-06T14:02:33;4.03;;;1.75;;
1436;SDS011;712;51.026;13.792;2023-08-06T14:04:59;4.40;;;1.90;;
1436;SDS011;712;51.026;13.792;2023-08-06T14:07:24;3.50;;;1.90;;
1436;SDS011;712;51.026;13.792;2023-08-06T14:09:49;4.30;;;1.87;;
1436;SDS011;712;51.026;13.792;2023-08-06T14:12:14;5.00;;;2.20;;
1436;SDS011;712;51.026;13.792;2023-08-06T14:14:39;4.13;;;1.90;;
1436;SDS011;712;51.026;13.792;2023-08-06T14:17:04;3.40;;;1.80;;
1436;SDS011;712;51.026;13.792;2023-08-06T14:19:30;4.47;;;2.00;;
1436;SDS011;712;51.026;13.792;2023-08-06T14:21:55;3.70;;;1.53;;
1436;SDS011;712;51.026;13.792;2023-08-06T14:24:20;4.60;;;1.83;;
1436;SDS011;712;51.026;13.792;2023-08-06T14:26:45;3.60;;;1.90;;
1436;SDS011;712;51.026;13.792;2023-08-06T14:29:11;3.93;;;2.20;;
1436;SDS011;712;51.026;13.792;2023-08-06T14:31:36;3.80;;;1.70;;
1436;SDS011;712;51.026;13.792;2023-08-06T14:34:01;4.10;;;1.70;;
1436;SDS011;712;51.026;13.792;2023-08-06T14:36:27;4.03;;;1.60;;
1436;SDS011;712;51.026;13.792;2023-08-06T14:38:52;3.50;;;1.90;;
1436;SDS011;712;51.026;13.792;2023-08-06T14:41:17;3.75;;;2.05;;
1436;SDS011;712;51.026;13.792;2023-08-06T14:43:42;4.67;;;2.27;;
1436;SDS011;712;51.026;13.792;2023-08-06T14:46:07;4.33;;;2.20;;
1436;SDS011;712;51.026;13.792;2023-08-06T14:48:33;4.00;;;2.15;;
1436;SDS011;712;51.026;13.792;2023-08-06T14:50:58;6.73;;;2.40;;
1436;SDS011;712;51.026;13.792;2023-08-06T14:53:23;4.03;;;2.10;;
1436;SDS011;712;51.026;13.792;2023-08-06T14:55:48;5.63;;;2.28;;
1436;SDS011;712;51.026;13.792;2023-08-06T14:58:13;4.37;;;2.20;;
1436;SDS011;712;51.026;13.792;2023-08-06T15:00:39;4.90;;;2.40;;
1436;SDS011;712;51.026;13.792;2023-08-06T15:03:04;3.93;;;2.10;;
1436;SDS011;712;51.026;13.792;2023-08-06T15:05:29;3.80;;;1.80;;
1436;SDS011;712;51.026;13.792;2023-08-06T15:07:54;4.10;;;2.40;;
1436;SDS011;712;51.026;13.792;2023-08-06T15:10:19;5.43;;;2.40;;
1436;SDS011;712;51.026;13.792;2023-08-06T15:12:45;4.43;;;2.07;;
1436;SDS011;712;51.026;13.792;2023-08-06T15:15:10;5.68;;;2.10;;
1436;SDS011;712;51.026;13.792;2023-08-06T15:17:35;7.22;;;2.50;;
1436;SDS011;712;51.026;13.792;2023-08-06T15:20:01;5.63;;;2.20;;